Time;durP1;ratioP1;P1;durP2;ratioP2;P2;SDS_P1;SDS_P2;PMS_P1;PMS_P2;Temp;Humidity;BMP_temperature;BMP_pressure;BME280_temperature;BME280_humidity;BME280_pressure;Samples;Min_cycle;Max_cycle;Signal;HPM_P1;HPM_P2
2022/03/02 00:01:01;;;;;;;39.57;5.80;;;1.30;86.40;;;;;;5032505;28;20291;-75
2022/03/02 00:03:35;;;;;;;7.03;5.53;;;1.30;86.40;;;;;;5033237;28;20198;-76
2022/03/02 00:06:11;;;;;;;6.30;5.40;;;1.30;85.20;;;;;;5033341;28;20222;-76
2022/03/02 00:08:40;;;;;;;6.57;5.97;;;1.30;89.10;;;;;;5033015;28;20320;-76
2022/03/02 00:11:14;;;;;;;7.73;5.23;;;1.30;87.30;;;;;;5033366;28;20320;-76
2022/03/02 00:13:42;;;;;;;6.27;5.23;;;1.20;88.90;;;;;;5033921;28;20233;-76
2022/03/02 00:16:16;;;;;;;7.00;5.77;;;1.20;89.20;;;;;;5033444;28;20204;-76
2022/03/02 00:18:46;;;;;;;10.67;6.53;;;1.20;89.80;;;;;;5033272;28;20202;-76
2022/03/02 00:21:15;;;;;;;8.13;6.10;;;1.20;89.20;;;;;;5033239;28;20276;-76
2022/03/02 00:23:43;;;;;;;5.87;5.03;;;1.20;89.00;;;;;;5033050;28;20238;-76
2022/03/02 00:26:12;;;;;;;12.60;6.53;;;1.20;90.60;;;;;;5033599;28;20240;-83
2022/03/02 00:28:40;;;;;;;6.63;5.50;;;1.10;90.50;;;;;;5033148;28;20217;-82
2022/03/02 00:31:11;;;;;;;7.13;5.47;;;1.10;90.50;;;;;;5033462;28;20222;-82
2022/03/02 00:34:03;;;;;;;8.20;6.03;;;1.10;90.50;;;;;;4974918;28;20228;-82
2022/03/02 00:36:37;;;;;;;5.27;4.77;;;1.10;91.00;;;;;;4992458;28;20265;-82
2022/03/02 00:39:11;;;;;;;5.60;4.97;;;1.10;91.30;;;;;;4991427;28;20200;-82
2022/03/02 00:41:41;;;;;;;6.70;6.00;;;1.10;91.60;;;;;;4972786;28;20267;-82
2022/03/02 00:44:15;;;;;;;7.70;6.73;;;1.00;92.50;;;;;;4974329;28;20224;-82
2022/03/02 00:46:57;;;;;;;6.37;5.73;;;1.00;93.80;;;;;;4972321;28;20208;-82
2022/03/02 00:49:56;;;;;;;6.33;5.13;;;1.00;93.10;;;;;;4971372;28;20208;-83
2022/03/02 00:52:25;;;;;;;4.93;4.47;;;0.90;93.20;;;;;;5014268;28;20229;-82
2022/03/02 00:54:56;;;;;;;6.00;5.40;;;0.90;93.50;;;;;;5052834;28;20259;-82
2022/03/02 00:57:28;;;;;;;7.37;6.03;;;0.80;93.70;;;;;;5052967;28;20331;-82
2022/03/02 00:59:56;;;;;;;7.57;6.40;;;0.80;93.60;;;;;;5039822;28;20197;-83
2022/03/02 01:02:25;;;;;;;8.07;5.70;;;0.80;93.90;;;;;;5045482;28;20215;-83
2022/03/02 01:05:00;;;;;;;7.60;6.17;;;0.80;95.70;;;;;;5040128;28;20226;-82
2022/03/02 01:07:31;;;;;;;8.53;6.83;;;0.80;94.60;;;;;;5045931;28;20190;-83
2022/03/02 01:10:00;;;;;;;8.27;5.60;;;0.80;95.10;;;;;;5032546;28;20214;-82
2022/03/02 01:12:28;;;;;;;6.30;5.40;;;0.80;94.40;;;;;;5032862;28;20229;-83
2022/03/02 01:15:02;;;;;;;6.07;4.77;;;0.90;94.70;;;;;;5033155;28;20198;-82
2022/03/02 01:17:31;;;;;;;7.57;5.73;;;0.90;94.00;;;;;;5032827;28;20237;-82
2022/03/02 01:20:01;;;;;;;7.23;5.60;;;1.00;94.20;;;;;;5032493;28;20210;-82
2022/03/02 01:22:32;;;;;;;7.60;5.80;;;1.00;94.10;;;;;;5032831;28;20222;-82
2022/03/02 01:25:01;;;;;;;9.10;6.43;;;1.00;94.10;;;;;;5032720;28;20256;-82
2022/03/02 01:27:29;;;;;;;8.67;6.40;;;1.00;93.70;;;;;;5032744;28;20256;-82
2022/03/02 01:30:01;;;;;;;7.53;5.67;;;1.00;94.00;;;;;;5032272;28;20238;-82
2022/03/02 01:32:29;;;;;;;7.57;5.80;;;1.00;93.90;;;;;;5032640;28;20234;-82
2022/03/02 01:34:58;;;;;;;9.23;6.93;;;1.00;94.50;;;;;;5033884;28;20212;-82
2022/03/02 01:37:28;;;;;;;7.70;5.57;;;1.00;94.20;;;;;;5036798;28;20210;-82
2022/03/02 01:39:56;;;;;;;9.73;6.43;;;1.00;94.20;;;;;;5036336;28;20191;-82
2022/03/02 01:42:25;;;;;;;7.97;6.50;;;1.00;94.10;;;;;;5036723;28;20226;-82
2022/03/02 01:44:53;;;;;;;9.93;6.20;;;1.00;94.60;;;;;;5036722;28;20202;-82
2022/03/02 01:47:22;;;;;;;7.50;5.70;;;1.00;94.80;;;;;;5035971;28;20207;-82
2022/03/02 01:49:51;;;;;;;13.37;7.03;;;1.00;94.70;;;;;;5034623;28;20237;-82
2022/03/02 01:52:19;;;;;;;12.20;7.10;;;1.10;94.00;;;;;;5035603;28;20214;-82
2022/03/02 01:54:54;;;;;;;10.20;6.07;;;1.10;95.80;;;;;;5034826;28;20273;-82
2022/03/02 01:57:22;;;;;;;7.80;6.57;;;1.10;94.20;;;;;;5046595;28;20198;-82
2022/03/02 01:59:53;;;;;;;5.77;5.27;;;1.10;94.20;;;;;;5046484;28;20198;-82
2022/03/02 02:02:21;;;;;;;5.87;5.30;;;1.00;94.30;;;;;;5047466;28;20214;-82
2022/03/02 02:05:04;;;;;;;6.87;5.70;;;1.00;94.90;;;;;;5040098;28;20204;-82
2022/03/02 02:07:43;;;;;;;8.00;6.17;;;1.00;94.60;;;;;;5036985;28;20205;-82
2022/03/02 02:10:13;;;;;;;6.30;5.70;;;1.00;94.10;;;;;;5035481;28;20242;-82
2022/03/02 02:12:43;;;;;;;8.90;6.80;;;1.00;94.70;;;;;;5038044;28;20218;-82
2022/03/02 02:15:14;;;;;;;8.17;5.97;;;1.00;94.90;;;;;;5039550;28;20202;-82
2022/03/02 02:17:45;;;;;;;9.73;6.23;;;1.00;94.40;;;;;;5055305;28;20217;-82
2022/03/02 02:20:14;;;;;;;6.57;5.23;;;0.90;96.40;;;;;;5049309;28;20252;-82
2022/03/02 02:22:48;;;;;;;7.30;5.80;;;1.00;95.30;;;;;;5036061;28;20282;-82
2022/03/02 02:25:36;;;;;;;6.63;5.77;;;1.00;95.40;;;;;;5035964;28;20267;-82
2022/03/02 02:28:06;;;;;;;11.77;5.83;;;1.00;95.20;;;;;;5044882;28;20205;-82
2022/03/02 02:30:39;;;;;;;21.47;6.87;;;0.90;94.70;;;;;;5038157;28;20288;-82
2022/03/02 02:33:15;;;;;;;12.47;6.73;;;1.00;97.00;;;;;;5047019;28;20221;-82
2022/03/02 02:35:46;;;;;;;7.87;6.00;;;1.00;94.80;;;;;;5055672;28;20194;-82
2022/03/02 02:38:21;;;;;;;6.77;5.80;;;1.00;94.90;;;;;;5055581;28;20206;-81
2022/03/02 02:40:51;;;;;;;6.83;5.57;;;0.90;94.30;;;;;;5055519;28;20203;-82
2022/03/02 02:43:21;;;;;;;10.93;7.00;;;0.90;94.60;;;;;;5055749;28;20205;-84
2022/03/02 02:45:52;;;;;;;11.43;6.43;;;1.00;95.80;;;;;;5051294;28;20226;-82
2022/03/02 02:48:34;;;;;;;9.63;5.80;;;0.90;96.40;;;;;;5039544;28;20213;-81
2022/03/02 02:51:19;;;;;;;6.83;5.83;;;0.90;94.80;;;;;;5054763;28;20222;-81
2022/03/02 02:53:51;;;;;;;8.43;5.03;;;0.90;94.70;;;;;;5050150;28;20210;-81
2022/03/02 02:56:21;;;;;;;4.67;4.20;;;0.90;95.70;;;;;;5035229;28;20214;-81
2022/03/02 02:58:52;;;;;;;7.67;6.03;;;0.80;95.00;;;;;;5034891;28;20222;-81
2022/03/02 03:01:20;;;;;;;6.17;5.17;;;0.90;95.60;;;;;;5050995;28;20263;-82
2022/03/02 03:03:49;;;;;;;11.70;6.23;;;0.80;95.10;;;;;;5054958;28;20210;-82
2022/03/02 03:06:29;;;;;;;5.77;5.23;;;0.80;95.20;;;;;;5054840;28;20206;-81
2022/03/02 03:08:59;;;;;;;17.43;6.00;;;0.80;95.00;;;;;;5045765;28;20210;-82
2022/03/02 03:11:28;;;;;;;5.93;5.33;;;0.80;96.10;;;;;;5048171;28;20225;-82
2022/03/02 03:13:57;;;;;;;7.23;5.87;;;0.80;94.70;;;;;;5046391;28;20260;-81
2022/03/02 03:16:25;;;;;;;7.53;5.93;;;0.80;95.50;;;;;;5035078;28;20260;-81
2022/03/02 03:18:54;;;;;;;7.43;6.23;;;0.80;95.30;;;;;;5036052;28;20214;-81
2022/03/02 03:21:22;;;;;;;6.33;5.10;;;0.80;94.60;;;;;;5055346;28;20237;-81
2022/03/02 03:23:50;;;;;;;5.60;4.97;;;0.70;95.40;;;;;;5054594;28;20259;-81
2022/03/02 03:26:24;;;;;;;7.57;5.77;;;0.70;95.70;;;;;;5050602;28;20269;-81
2022/03/02 03:28:53;;;;;;;5.20;4.70;;;0.70;95.60;;;;;;5034741;28;20260;-81
2022/03/02 03:31:23;;;;;;;10.57;5.57;;;0.60;96.00;;;;;;5033931;28;20246;-81
2022/03/02 03:33:51;;;;;;;6.23;5.63;;;0.60;95.40;;;;;;5033778;28;20203;-81
2022/03/02 03:36:22;;;;;;;7.77;5.53;;;0.60;95.60;;;;;;5033532;28;20245;-82
2022/03/02 03:39:05;;;;;;;4.93;4.43;;;0.60;95.70;;;;;;5033372;28;20198;-81
2022/03/02 03:41:35;;;;;;;10.63;5.53;;;0.60;95.80;;;;;;5034463;28;20242;-81
2022/03/02 03:44:04;;;;;;;9.43;5.33;;;0.60;95.40;;;;;;5034225;28;20230;-81
2022/03/02 03:46:37;;;;;;;6.37;5.17;;;0.50;95.40;;;;;;5034523;28;20229;-81
2022/03/02 03:49:09;;;;;;;9.43;4.70;;;0.50;95.20;;;;;;5034230;28;20209;-82
2022/03/02 03:51:38;;;;;;;7.17;5.23;;;0.60;95.60;;;;;;5033586;28;20257;-81
2022/03/02 03:54:13;;;;;;;9.87;5.40;;;0.50;95.80;;;;;;5033850;28;20252;-82
2022/03/02 03:56:45;;;;;;;6.73;4.80;;;0.50;95.10;;;;;;5033799;28;20210;-82
2022/03/02 03:59:15;;;;;;;6.07;5.47;;;0.60;96.00;;;;;;5046459;28;20213;-82
2022/03/02 04:01:46;;;;;;;5.90;4.63;;;0.50;95.80;;;;;;5054129;28;20217;-82
2022/03/02 04:04:16;;;;;;;7.17;5.50;;;0.50;96.20;;;;;;5051834;28;20202;-82
2022/03/02 04:06:44;;;;;;;6.17;4.97;;;0.50;95.50;;;;;;5053928;28;20201;-82
2022/03/02 04:09:13;;;;;;;8.17;5.83;;;0.50;95.90;;;;;;5053577;28;20226;-82
2022/03/02 04:11:43;;;;;;;5.60;4.53;;;0.50;96.30;;;;;;5053473;28;20237;-82
2022/03/02 04:14:11;;;;;;;9.50;6.17;;;0.50;95.80;;;;;;5037499;28;20260;-82
2022/03/02 04:16:40;;;;;;;6.03;5.43;;;0.50;97.40;;;;;;5033984;28;20206;-81
2022/03/02 04:19:08;;;;;;;6.27;5.03;;;0.50;98.00;;;;;;5053816;28;20206;-82
2022/03/02 04:21:36;;;;;;;5.40;4.90;;;0.50;96.40;;;;;;5054485;28;20246;-81
2022/03/02 04:24:07;;;;;;;6.50;5.37;;;0.50;97.40;;;;;;5053510;28;20293;-82
2022/03/02 04:26:41;;;;;;;6.93;4.90;;;0.50;96.20;;;;;;5053767;28;20209;-81
2022/03/02 04:29:11;;;;;;;5.20;4.53;;;0.50;99.40;;;;;;5053332;28;20213;-82
2022/03/02 04:31:40;;;;;;;6.47;5.10;;;0.50;95.90;;;;;;5047929;28;20279;-82
2022/03/02 04:34:14;;;;;;;8.63;5.70;;;0.50;96.90;;;;;;5033769;28;20217;-82
2022/03/02 04:36:42;;;;;;;7.03;5.33;;;0.50;96.20;;;;;;5033565;28;20289;-82
2022/03/02 04:39:11;;;;;;;7.47;5.47;;;0.50;96.50;;;;;;5033617;28;20290;-81
2022/03/02 04:41:39;;;;;;;6.97;5.20;;;0.50;96.00;;;;;;5041380;28;20263;-82
2022/03/02 04:44:08;;;;;;;7.60;5.37;;;0.50;96.90;;;;;;5053388;28;20217;-82
2022/03/02 04:46:48;;;;;;;5.83;5.23;;;0.40;96.10;;;;;;5052926;28;20240;-82
2022/03/02 04:49:18;;;;;;;5.63;5.13;;;0.50;98.00;;;;;;5053391;28;20201;-81
2022/03/02 04:51:47;;;;;;;8.73;5.80;;;0.50;99.90;;;;;;5051827;28;20221;-82
2022/03/02 04:56:59;;;;;;;5.43;4.93;;;0.50;95.90;;;;;;5032964;28;20205;-83
2022/03/02 04:59:29;;;;;;;8.53;6.17;;;0.40;97.20;;;;;;5032475;28;20212;-82
2022/03/02 05:02:00;;;;;;;9.97;6.00;;;0.50;96.40;;;;;;5032410;28;20269;-82
2022/03/02 05:04:31;;;;;;;6.67;5.10;;;0.50;96.90;;;;;;5048091;28;20263;-82
2022/03/02 05:07:00;;;;;;;6.40;4.20;;;0.40;95.90;;;;;;5052495;28;20206;-84
2022/03/02 05:09:29;;;;;;;4.60;4.20;;;0.40;96.00;;;;;;5035341;28;20207;-82
2022/03/02 05:11:57;;;;;;;6.60;4.97;;;0.40;96.70;;;;;;5036906;28;20226;-82
2022/03/02 05:14:25;;;;;;;6.07;5.30;;;0.40;96.20;;;;;;5036750;28;20256;-82
2022/03/02 05:16:53;;;;;;;5.23;4.17;;;0.40;96.60;;;;;;5037171;28;20236;-82
2022/03/02 05:19:23;;;;;;;12.03;4.77;;;0.40;96.60;;;;;;5037287;28;20335;-81
2022/03/02 05:21:52;;;;;;;5.73;5.13;;;0.30;96.70;;;;;;5040799;28;20301;-82
2022/03/02 05:24:20;;;;;;;8.17;4.97;;;0.30;97.10;;;;;;5057060;28;20287;-82
2022/03/02 05:27:00;;;;;;;9.00;5.23;;;0.40;97.70;;;;;;5050062;28;20202;-83
2022/03/02 05:29:29;;;;;;;8.80;5.87;;;0.30;96.50;;;;;;5056565;28;20202;-82
2022/03/02 05:31:57;;;;;;;9.30;6.07;;;0.30;96.20;;;;;;5054657;28;20250;-82
2022/03/02 05:34:30;;;;;;;9.10;5.83;;;0.20;96.50;;;;;;5056813;28;20210;-82
2022/03/02 05:36:59;;;;;;;5.00;4.50;;;0.20;96.50;;;;;;5056087;28;20206;-82
2022/03/02 05:39:29;;;;;;;8.40;6.33;;;0.20;96.50;;;;;;5056594;28;20213;-83
2022/03/02 05:42:01;;;;;;;5.37;4.80;;;0.20;96.60;;;;;;5044203;28;20226;-82
2022/03/02 05:44:30;;;;;;;8.87;5.70;;;0.20;96.40;;;;;;5036886;28;20276;-83
2022/03/02 05:47:00;;;;;;;6.83;6.03;;;0.20;96.50;;;;;;5037056;28;20203;-83
2022/03/02 05:49:30;;;;;;;5.83;4.67;;;0.10;97.00;;;;;;5035973;28;20237;-82
2022/03/02 05:51:58;;;;;;;6.70;5.53;;;0.20;97.40;;;;;;5042763;28;20272;-82
2022/03/02 05:54:27;;;;;;;6.13;5.30;;;0.20;97.90;;;;;;5036588;28;20203;-83
2022/03/02 05:56:58;;;;;;;6.33;5.73;;;0.20;98.10;;;;;;5036699;28;20295;-81
2022/03/02 05:59:30;;;;;;;10.83;4.90;;;0.20;98.40;;;;;;5035828;28;20207;-81
2022/03/02 06:02:01;;;;;;;6.10;5.00;;;0.20;97.70;;;;;;5036349;28;20245;-82
2022/03/02 06:04:37;;;;;;;6.93;5.07;;;0.20;97.50;;;;;;5036341;28;20206;-82
2022/03/02 06:07:05;;;;;;;7.13;5.87;;;0.20;97.30;;;;;;5036340;28;20287;-82
2022/03/02 06:09:35;;;;;;;7.83;5.87;;;0.20;99.90;;;;;;5053988;28;20384;-81
2022/03/02 06:12:08;;;;;;;6.23;4.80;;;0.30;99.90;;;;;;5052720;28;20305;-78
2022/03/02 06:14:37;;;;;;;8.37;5.60;;;0.30;98.40;;;;;;5035536;28;20218;-78
2022/03/02 06:17:09;;;;;;;6.83;5.63;;;0.20;97.90;;;;;;5045910;28;20205;-77
2022/03/02 06:20:14;;;;;;;9.60;6.03;;;0.20;97.40;;;;;;5055714;28;20198;-72
2022/03/02 06:22:43;;;;;;;7.80;5.70;;;0.20;97.20;;;;;;5048841;28;20225;-76
2022/03/02 06:25:12;;;;;;;7.10;5.63;;;0.30;96.80;;;;;;5042820;28;20206;-76
2022/03/02 06:27:41;;;;;;;8.23;5.87;;;0.20;97.20;;;;;;5046962;28;20194;-76
2022/03/02 06:30:10;;;;;;;14.83;6.23;;;0.30;97.50;;;;;;5055682;28;20202;-78
2022/03/02 06:32:38;;;;;;;7.43;5.80;;;0.30;96.80;;;;;;5037875;28;20238;-76
2022/03/02 06:35:09;;;;;;;7.97;5.87;;;0.30;96.90;;;;;;5035452;28;20226;-77
2022/03/02 06:37:38;;;;;;;8.60;6.00;;;0.30;97.00;;;;;;5035503;28;20206;-78
2022/03/02 06:40:10;;;;;;;8.90;6.80;;;0.30;97.50;;;;;;5047574;28;20289;-78
2022/03/02 06:43:00;;;;;;;5.33;4.83;;;0.40;97.10;;;;;;5055429;28;20320;-81
2022/03/02 06:45:44;;;;;;;6.30;5.50;;;0.40;96.60;;;;;;5054209;28;20225;-81
2022/03/02 06:48:14;;;;;;;7.43;5.50;;;0.40;97.20;;;;;;5054482;28;20202;-80
2022/03/02 06:50:47;;;;;;;7.60;6.13;;;0.40;97.40;;;;;;5054226;28;20271;-80
2022/03/02 06:53:16;;;;;;;10.37;7.47;;;0.40;96.90;;;;;;5054361;28;20222;-81
2022/03/02 06:55:46;;;;;;;6.63;6.03;;;0.50;96.60;;;;;;5054214;28;20218;-80
2022/03/02 06:58:15;;;;;;;7.60;5.93;;;0.50;97.30;;;;;;5054101;28;20232;-81
2022/03/02 07:00:52;;;;;;;6.70;5.43;;;0.50;96.80;;;;;;5054325;28;20198;-81
2022/03/02 07:03:27;;;;;;;8.87;5.90;;;0.60;96.60;;;;;;5054147;28;20211;-80
2022/03/02 07:05:57;;;;;;;8.90;5.67;;;0.70;98.20;;;;;;5054444;28;20243;-80
2022/03/02 07:08:26;;;;;;;6.73;5.20;;;0.80;96.00;;;;;;5043534;28;20206;-78
2022/03/02 07:10:55;;;;;;;7.67;5.40;;;1.00;95.70;;;;;;5050058;28;20202;-78
2022/03/02 07:13:24;;;;;;;6.67;5.63;;;1.10;94.10;;;;;;5053865;28;20256;-78
2022/03/02 07:15:52;;;;;;;9.03;5.43;;;1.20;95.50;;;;;;5053921;28;20210;-85
2022/03/02 07:18:21;;;;;;;18.17;4.50;;;1.30;93.90;;;;;;5053981;28;20210;-77
2022/03/02 07:20:55;;;;;;;5.47;4.97;;;1.40;93.60;;;;;;5053640;28;20210;-77
2022/03/02 07:23:35;;;;;;;7.50;4.80;;;1.60;93.70;;;;;;5054568;28;20198;-78
2022/03/02 07:26:05;;;;;;;4.60;3.67;;;1.70;93.00;;;;;;5053503;28;20268;-77
2022/03/02 07:28:38;;;;;;;5.17;4.20;;;1.80;91.60;;;;;;5052139;28;20236;-78
2022/03/02 07:31:08;;;;;;;22.60;4.53;;;1.90;92.40;;;;;;5050726;28;20281;-78
2022/03/02 07:33:41;;;;;;;7.13;5.23;;;2.00;90.90;;;;;;5049381;28;20222;-78
2022/03/02 07:36:11;;;;;;;5.40;4.90;;;2.00;91.30;;;;;;5050727;28;20209;-78
2022/03/02 07:38:41;;;;;;;7.28;5.05;;;2.10;91.10;;;;;;5051400;28;20261;-78
2022/03/02 07:41:10;;;;;;;6.70;4.90;;;2.10;90.40;;;;;;5043544;28;20334;-78
2022/03/02 07:43:40;;;;;;;8.57;5.20;;;2.20;89.80;;;;;;5037627;28;20194;-82
2022/03/02 07:46:11;;;;;;;5.63;5.00;;;2.20;90.30;;;;;;5052735;28;20202;-82
2022/03/02 07:48:40;;;;;;;7.90;5.50;;;2.30;88.80;;;;;;5051514;28;20255;-83
2022/03/02 07:51:10;;;;;;;6.70;4.73;;;2.30;88.20;;;;;;5052463;28;20205;-82
2022/03/02 07:53:44;;;;;;;7.37;5.60;;;2.40;89.80;;;;;;5054044;28;20217;-82
2022/03/02 07:56:13;;;;;;;6.57;5.90;;;2.40;88.30;;;;;;5045672;28;20190;-82
2022/03/02 07:58:43;;;;;;;8.48;5.50;;;2.50;88.30;;;;;;5053953;28;20299;-83
2022/03/02 08:01:14;;;;;;;10.23;5.20;;;2.60;90.40;;;;;;5043366;28;20222;-82
2022/03/02 08:03:45;;;;;;;5.50;4.95;;;2.70;85.90;;;;;;5034742;28;20245;-83
2022/03/02 08:06:14;;;;;;;5.72;3.97;;;2.70;91.60;;;;;;5034155;28;20214;-82
2022/03/02 08:08:46;;;;;;;4.63;4.13;;;2.80;90.30;;;;;;5035073;28;20199;-82
2022/03/02 08:11:15;;;;;;;5.63;4.80;;;2.90;86.80;;;;;;5052426;28;20302;-82
2022/03/02 08:13:43;;;;;;;6.68;4.35;;;2.90;84.00;;;;;;5048232;28;20264;-82
2022/03/02 08:16:13;;;;;;;6.63;5.15;;;3.00;82.20;;;;;;5035129;28;20203;-82
2022/03/02 08:18:42;;;;;;;5.03;4.55;;;3.10;82.00;;;;;;5034250;28;20202;-82
2022/03/02 08:21:17;;;;;;;6.13;5.15;;;3.10;81.00;;;;;;5051213;28;20252;-82
2022/03/02 08:23:51;;;;;;;5.40;4.20;;;3.30;84.70;;;;;;5048132;28;20280;-82
2022/03/02 08:26:24;;;;;;;5.95;4.78;;;3.30;81.50;;;;;;5035692;28;20199;-82
2022/03/02 08:28:55;;;;;;;4.65;4.07;;;3.40;79.00;;;;;;5032894;28;20238;-82
2022/03/02 08:31:25;;;;;;;5.80;4.57;;;3.50;78.00;;;;;;5038776;28;20226;-82
2022/03/02 08:33:55;;;;;;;9.65;4.68;;;3.60;76.40;;;;;;5048626;28;20218;-83
2022/03/02 08:36:25;;;;;;;5.57;4.93;;;3.70;78.40;;;;;;5044249;28;20198;-82
2022/03/02 08:38:55;;;;;;;8.13;4.95;;;3.80;76.70;;;;;;5053059;28;20202;-83
2022/03/02 08:41:29;;;;;;;5.82;4.85;;;3.90;77.10;;;;;;5048578;28;20229;-81
2022/03/02 08:43:57;;;;;;;5.40;4.55;;;3.90;75.40;;;;;;5052380;28;20205;-81
2022/03/02 08:46:26;;;;;;;10.30;6.15;;;4.00;74.70;;;;;;5032766;28;20225;-81
2022/03/02 08:48:56;;;;;;;4.72;4.32;;;4.10;74.40;;;;;;5033427;28;20207;-81
2022/03/02 08:51:27;;;;;;;4.90;4.05;;;4.20;74.20;;;;;;5050292;28;20241;-81
2022/03/02 08:54:05;;;;;;;5.10;4.45;;;4.30;73.80;;;;;;5048605;28;20214;-84
2022/03/02 08:56:35;;;;;;;4.57;4.18;;;4.40;73.30;;;;;;5033031;28;20253;-85
2022/03/02 08:59:05;;;;;;;5.43;4.68;;;4.50;76.90;;;;;;5033054;28;20214;-83
2022/03/02 09:01:34;;;;;;;5.43;4.50;;;4.60;72.40;;;;;;5032929;28;20328;-84
2022/03/02 09:04:03;;;;;;;4.57;4.15;;;4.80;72.90;;;;;;5032737;28;20198;-84
2022/03/02 09:06:35;;;;;;;5.88;4.40;;;4.90;71.90;;;;;;5039492;28;20194;-83
2022/03/02 09:09:07;;;;;;;4.65;4.20;;;5.10;71.10;;;;;;5051124;28;20233;-82
2022/03/02 09:11:37;;;;;;;5.55;4.95;;;5.30;70.30;;;;;;5052816;28;20221;-86
2022/03/02 09:14:06;;;;;;;4.55;3.97;;;5.30;69.80;;;;;;5052305;28;20240;-85
2022/03/02 09:16:53;;;;;;;5.20;4.22;;;5.30;67.70;;;;;;5048665;28;20202;-81
2022/03/02 09:19:32;;;;;;;7.85;4.90;;;5.40;68.80;;;;;;5052821;28;20214;-81
2022/03/02 09:22:03;;;;;;;7.03;5.55;;;5.60;67.70;;;;;;5052396;28;20233;-81
2022/03/02 09:24:34;;;;;;;8.38;5.05;;;5.60;66.60;;;;;;5052194;28;20259;-81
2022/03/02 09:27:09;;;;;;;6.85;5.35;;;5.90;66.50;;;;;;5052164;28;20220;-80
2022/03/02 09:29:47;;;;;;;6.03;5.05;;;6.50;66.20;;;;;;5044924;28;20230;-82
2022/03/02 09:32:21;;;;;;;4.95;4.45;;;7.20;65.30;;;;;;5048846;28;20221;-81
2022/03/02 09:34:52;;;;;;;6.30;5.15;;;7.80;61.80;;;;;;5052547;28;20259;-82
2022/03/02 09:41:13;;;;;;;6.97;4.97;;;8.40;59.20;;;;;;4956433;28;20264;-81
2022/03/02 09:43:48;;;;;;;8.38;5.57;;;9.00;58.90;;;;;;5032187;28;20281;-81
2022/03/02 09:46:27;;;;;;;6.40;4.68;;;9.40;58.90;;;;;;5032109;28;20202;-81
2022/03/02 09:49:03;;;;;;;6.57;4.70;;;9.80;55.90;;;;;;5032367;28;20229;-81
2022/03/02 09:54:45;;;;;;;4.68;4.28;;;10.50;55.70;;;;;;5031583;28;20217;-84
2022/03/02 10:00:24;;;;;;;7.13;4.85;;;10.10;52.70;;;;;;5044227;28;20210;-83
2022/03/02 10:02:55;;;;;;;8.05;5.13;;;9.90;52.40;;;;;;5047547;28;20219;-79
2022/03/02 10:05:26;;;;;;;6.32;4.88;;;9.60;52.30;;;;;;5051853;28;20198;-83
2022/03/02 10:08:00;;;;;;;8.38;5.68;;;9.10;52.40;;;;;;5055721;28;20202;-82
2022/03/02 10:10:33;;;;;;;5.15;4.32;;;8.70;54.40;;;;;;5055812;28;20208;-84
2022/03/02 10:13:05;;;;;;;7.25;5.47;;;8.20;54.70;;;;;;5055611;28;20228;-86
2022/03/02 10:15:34;;;;;;;7.03;5.85;;;8.10;55.60;;;;;;5055113;28;20217;-85
2022/03/02 10:18:06;;;;;;;6.32;5.35;;;7.90;55.40;;;;;;5055141;28;20201;-85
2022/03/02 10:20:36;;;;;;;17.10;4.70;;;7.60;57.00;;;;;;5054540;28;20234;-83
2022/03/02 10:23:18;;;;;;;5.68;4.72;;;7.50;56.80;;;;;;5054699;28;20214;-83
2022/03/02 10:25:58;;;;;;;5.30;4.80;;;7.70;58.40;;;;;;5055218;28;20253;-82
2022/03/02 10:28:31;;;;;;;7.07;5.88;;;7.80;58.10;;;;;;5055162;28;20202;-83
2022/03/02 10:31:16;;;;;;;10.65;6.50;;;7.80;56.50;;;;;;5044699;28;20194;-83
2022/03/02 10:33:48;;;;;;;6.32;5.63;;;8.10;57.30;;;;;;5036667;28;20195;-83
2022/03/02 10:36:19;;;;;;;5.05;4.60;;;8.20;57.80;;;;;;5035211;28;20246;-82
2022/03/02 10:39:03;;;;;;;5.65;5.10;;;8.60;57.70;;;;;;5046007;28;20222;-85
2022/03/02 10:41:39;;;;;;;7.63;6.03;;;9.10;57.50;;;;;;5034842;28;20241;-82
2022/03/02 10:44:17;;;;;;;7.43;5.95;;;9.40;55.50;;;;;;5049692;28;20225;-82
2022/03/02 10:46:57;;;;;;;6.53;5.78;;;9.60;56.00;;;;;;5036416;28;20305;-82
2022/03/02 10:49:28;;;;;;;7.78;5.75;;;9.80;56.20;;;;;;5047004;28;20210;-82
2022/03/02 10:51:59;;;;;;;6.63;5.57;;;10.70;54.00;;;;;;5041199;28;20222;-81
2022/03/02 10:54:28;;;;;;;6.25;5.47;;;11.20;51.70;;;;;;5035106;28;20222;-81
2022/03/02 10:57:03;;;;;;;5.07;4.68;;;11.50;52.60;;;;;;5040547;28;20209;-81
2022/03/02 10:59:33;;;;;;;7.88;5.57;;;11.60;51.50;;;;;;5053548;28;20218;-82
2022/03/02 11:02:02;;;;;;;7.28;6.50;;;12.10;51.10;;;;;;5054454;28;20252;-81
2022/03/02 11:04:31;;;;;;;7.25;6.00;;;12.40;49.30;;;;;;5054824;28;20204;-82
2022/03/02 11:07:04;;;;;;;8.30;5.97;;;12.40;49.60;;;;;;5054202;28;20202;-82
2022/03/02 11:09:53;;;;;;;6.43;5.75;;;12.30;48.60;;;;;;5054519;28;20200;-84
2022/03/02 11:12:21;;;;;;;6.65;5.85;;;12.60;49.60;;;;;;5054486;28;20313;-81
2022/03/02 11:14:56;;;;;;;7.95;6.47;;;12.70;49.10;;;;;;5054607;28;20319;-81
2022/03/02 11:17:31;;;;;;;10.32;6.18;;;12.90;48.20;;;;;;5054332;28;20292;-81
2022/03/02 11:20:07;;;;;;;7.75;6.60;;;12.90;50.00;;;;;;5054213;28;20232;-81
2022/03/02 11:22:36;;;;;;;7.00;6.20;;;13.20;47.50;;;;;;5054242;28;20229;-81
2022/03/02 11:25:06;;;;;;;8.63;6.57;;;13.30;47.60;;;;;;5054294;28;20194;-81
2022/03/02 11:27:39;;;;;;;9.30;6.57;;;13.40;47.60;;;;;;5054021;28;20277;-81
2022/03/02 11:30:12;;;;;;;6.65;6.03;;;13.50;46.40;;;;;;5053721;28;20267;-81
2022/03/02 11:32:42;;;;;;;8.05;5.93;;;13.80;45.60;;;;;;5054134;28;20240;-81
2022/03/02 11:35:20;;;;;;;6.57;5.93;;;13.80;45.00;;;;;;5053966;28;20217;-81
2022/03/02 11:37:58;;;;;;;11.02;6.70;;;13.50;44.20;;;;;;5053970;28;20194;-81
2022/03/02 11:40:40;;;;;;;6.57;5.95;;;13.10;43.90;;;;;;5053357;28;20205;-81
2022/03/02 11:43:17;;;;;;;7.88;5.40;;;13.10;45.20;;;;;;5051812;28;20300;-81
2022/03/02 11:45:56;;;;;;;8.88;5.63;;;12.90;44.30;;;;;;5051654;28;20198;-81
2022/03/02 11:48:27;;;;;;;20.15;6.00;;;13.20;44.40;;;;;;5048202;28;20220;-81
2022/03/02 11:51:04;;;;;;;5.90;5.10;;;13.80;43.00;;;;;;5465312;23;20260;-81
2022/03/02 11:53:34;;;;;;;6.80;5.60;;;14.20;42.80;;;;;;5051594;28;20209;-81
2022/03/02 11:56:06;;;;;;;7.53;5.95;;;14.20;41.40;;;;;;5053765;28;20272;-81
2022/03/02 11:59:00;;;;;;;8.20;5.53;;;14.40;40.00;;;;;;5053296;28;20205;-81
2022/03/02 12:01:50;;;;;;;5.93;5.32;;;14.50;39.60;;;;;;5051846;28;20217;-81
2022/03/02 12:04:30;;;;;;;5.80;5.22;;;14.10;38.10;;;;;;5046410;28;20202;-81
2022/03/02 12:07:02;;;;;;;6.68;5.35;;;14.40;38.60;;;;;;5052364;28;20224;-81
2022/03/02 12:09:32;;;;;;;7.22;5.60;;;14.70;38.90;;;;;;5052256;28;20281;-81
2022/03/02 12:12:11;;;;;;;5.93;5.32;;;14.70;39.20;;;;;;5052703;28;20271;-81
2022/03/02 12:14:45;;;;;;;9.73;5.63;;;14.70;41.00;;;;;;5052256;28;20232;-81
2022/03/02 12:17:20;;;;;;;14.30;5.97;;;14.80;39.30;;;;;;5051405;28;20228;-81
2022/03/02 12:19:52;;;;;;;5.53;4.97;;;14.70;37.60;;;;;;5053427;28;20296;-81
2022/03/02 12:22:22;;;;;;;7.20;5.47;;;14.50;39.20;;;;;;5044558;28;20307;-81
2022/03/02 12:24:51;;;;;;;5.70;5.20;;;14.50;39.40;;;;;;5033357;28;20293;-80
2022/03/02 12:27:20;;;;;;;8.63;6.30;;;14.50;39.20;;;;;;5049843;28;20248;-81
2022/03/02 12:29:55;;;;;;;11.82;5.72;;;14.40;37.80;;;;;;5052902;28;20248;-80
2022/03/02 12:32:28;;;;;;;7.20;5.57;;;14.30;38.10;;;;;;5052564;28;20309;-80
2022/03/02 12:35:13;;;;;;;6.30;5.13;;;14.20;39.10;;;;;;5051789;28;20240;-82
2022/03/02 12:37:41;;;;;;;5.88;5.28;;;14.20;37.90;;;;;;5053009;28;20258;-82
2022/03/02 12:40:13;;;;;;;12.18;6.28;;;14.30;38.10;;;;;;5053264;28;20248;-82
2022/03/02 12:42:44;;;;;;;5.85;5.25;;;14.70;36.50;;;;;;5052531;28;20216;-82
2022/03/02 12:45:13;;;;;;;5.88;5.20;;;14.50;36.70;;;;;;5052831;28;20284;-82
2022/03/02 12:47:43;;;;;;;6.40;5.63;;;14.40;37.60;;;;;;5053391;28;20205;-82
2022/03/02 12:50:14;;;;;;;7.15;5.28;;;14.30;37.70;;;;;;5052877;28;20240;-82
2022/03/02 12:52:43;;;;;;;5.28;4.82;;;14.30;38.10;;;;;;5052143;28;20218;-82
2022/03/02 12:55:13;;;;;;;9.90;5.15;;;14.30;37.50;;;;;;5050739;28;20214;-83
2022/03/02 12:57:42;;;;;;;5.68;5.18;;;14.40;37.40;;;;;;5052844;28;20220;-82
2022/03/02 13:00:13;;;;;;;5.55;5.05;;;14.60;38.20;;;;;;5052718;28;20296;-82
2022/03/02 13:02:44;;;;;;;6.75;4.72;;;14.40;37.40;;;;;;5052878;28;20253;-82
2022/03/02 13:05:33;;;;;;;6.32;5.57;;;14.30;37.70;;;;;;5053112;28;20205;-82
2022/03/02 13:08:28;;;;;;;5.50;5.00;;;14.60;36.80;;;;;;5052794;28;20205;-82
2022/03/02 13:10:58;;;;;;;4.88;4.35;;;14.80;35.90;;;;;;5054927;28;20237;-82
2022/03/02 13:13:35;;;;;;;6.35;5.22;;;14.90;35.80;;;;;;5053310;28;20202;-82
2022/03/02 13:16:19;;;;;;;5.15;4.65;;;14.50;35.20;;;;;;5053138;28;20264;-82
2022/03/02 13:18:50;;;;;;;5.55;4.25;;;14.30;36.40;;;;;;5053019;28;20217;-82
2022/03/02 13:21:21;;;;;;;6.60;4.60;;;14.30;35.80;;;;;;5038926;28;20253;-82
2022/03/02 13:24:34;;;;;;;6.50;5.28;;;14.50;37.00;;;;;;5051806;28;20240;-83
2022/03/02 13:27:12;;;;;;;7.78;5.32;;;14.60;34.70;;;;;;5052704;28;20202;-83
2022/03/02 13:30:12;;;;;;;11.60;5.38;;;14.80;35.50;;;;;;5052976;28;20209;-82
2022/03/02 13:33:02;;;;;;;5.30;4.63;;;15.00;34.50;;;;;;5056329;28;20251;-83